Time;durP1;ratioP1;P1;durP2;ratioP2;P2;SDS_P1;SDS_P2;PMS_P1;PMS_P2;Temp;Humidity;BMP_temperature;BMP_pressure;BME280_temperature;BME280_humidity;BME280_pressure;Samples;Min_cycle;Max_cycle;Signal;HPM_P1;HPM_P2
2022/08/25 00:01:57;;;;;;;10.38;4.93;;;20.30;99.80;;;;;;4954145;28;20165;-89
2022/08/25 00:04:26;;;;;;;7.43;5.20;;;20.30;99.90;;;;;;4953141;28;20203;-88
2022/08/25 00:06:54;;;;;;;7.38;4.95;;;20.40;99.90;;;;;;4954409;28;20196;-89
2022/08/25 00:09:25;;;;;;;12.23;5.38;;;20.30;99.90;;;;;;4954106;28;20158;-88
2022/08/25 00:11:51;;;;;;;6.72;4.95;;;20.40;99.90;;;;;;4954344;28;20189;-88
2022/08/25 00:16:56;;;;;;;10.45;5.47;;;20.30;99.90;;;;;;5423297;23;20579;-89
2022/08/25 00:19:26;;;;;;;9.30;5.93;;;20.30;99.90;;;;;;5014986;28;20178;-89
2022/08/25 00:21:52;;;;;;;7.70;5.50;;;20.30;99.90;;;;;;5014917;28;20210;-90
2022/08/25 00:24:19;;;;;;;10.57;5.70;;;20.20;99.90;;;;;;4997292;28;20246;-89
2022/08/25 00:26:48;;;;;;;7.50;5.50;;;20.20;99.90;;;;;;5014664;28;20178;-89
2022/08/25 00:29:14;;;;;;;8.00;6.20;;;20.20;99.90;;;;;;4997337;28;20215;-89
2022/08/25 00:31:40;;;;;;;6.68;5.20;;;20.20;99.90;;;;;;4997230;28;20194;-89
2022/08/25 00:34:14;;;;;;;10.77;5.90;;;20.20;99.90;;;;;;5015410;28;20179;-91
2022/08/25 00:36:40;;;;;;;8.63;6.07;;;20.20;99.90;;;;;;4997259;28;20183;-89
2022/08/25 00:39:07;;;;;;;11.93;5.50;;;20.20;99.90;;;;;;4997315;28;20175;-89
2022/08/25 00:41:34;;;;;;;7.93;5.78;;;20.20;99.90;;;;;;4997347;28;20618;-88
2022/08/25 00:44:05;;;;;;;7.97;5.97;;;20.10;99.90;;;;;;4999401;28;20215;-91
2022/08/25 00:46:39;;;;;;;8.73;5.82;;;20.10;99.90;;;;;;5009506;28;20610;-91
2022/08/25 00:49:16;;;;;;;9.30;6.30;;;20.10;99.90;;;;;;4998002;28;20180;-91
2022/08/25 00:52:12;;;;;;;8.25;5.88;;;20.00;99.90;;;;;;4997852;28;20628;-89
2022/08/25 00:54:48;;;;;;;10.50;5.82;;;20.00;99.90;;;;;;5015270;28;20661;-91
2022/08/25 00:57:17;;;;;;;8.38;6.18;;;20.00;99.90;;;;;;5014989;28;20194;-89
2022/08/25 00:59:43;;;;;;;9.40;5.70;;;20.00;99.90;;;;;;4996867;28;20705;-91
2022/08/25 01:02:10;;;;;;;9.35;5.28;;;20.00;99.90;;;;;;5003250;28;20278;-91
2022/08/25 01:04:36;;;;;;;7.82;5.60;;;20.00;99.90;;;;;;5013992;28;20210;-92
2022/08/25 01:07:03;;;;;;;7.60;5.88;;;20.00;99.90;;;;;;5014520;28;20180;-90
2022/08/25 01:09:31;;;;;;;11.55;6.63;;;20.00;99.90;;;;;;5013635;28;20621;-90
2022/08/25 01:11:58;;;;;;;11.30;6.63;;;19.90;99.90;;;;;;5013903;28;20177;-87
2022/08/25 01:14:25;;;;;;;8.60;5.97;;;19.90;99.90;;;;;;5009946;28;20274;-89
2022/08/25 01:16:52;;;;;;;12.30;6.50;;;19.80;99.90;;;;;;4997082;28;20231;-90
2022/08/25 01:19:19;;;;;;;9.35;6.50;;;19.80;99.90;;;;;;4997333;28;20497;-89
2022/08/25 01:21:48;;;;;;;7.90;6.18;;;19.80;99.90;;;;;;4997442;28;20175;-91
2022/08/25 01:24:35;;;;;;;8.77;6.07;;;19.70;99.90;;;;;;5014878;28;20241;-90
2022/08/25 01:27:01;;;;;;;8.80;6.35;;;19.70;99.90;;;;;;4996886;28;20270;-92
2022/08/25 01:29:28;;;;;;;10.15;7.15;;;19.60;99.90;;;;;;5013903;28;20229;-90
2022/08/25 01:31:56;;;;;;;9.57;6.68;;;19.60;99.90;;;;;;5012035;28;20598;-91
2022/08/25 01:34:24;;;;;;;9.90;6.10;;;19.60;99.90;;;;;;4993987;28;20619;-92
2022/08/25 01:36:50;;;;;;;9.95;5.75;;;19.60;99.90;;;;;;4992960;28;20569;-90
2022/08/25 01:39:22;;;;;;;9.40;6.80;;;19.60;99.90;;;;;;5005570;28;20187;-90
2022/08/25 01:41:57;;;;;;;11.07;7.13;;;19.60;99.90;;;;;;4997487;28;20179;-89
2022/08/25 01:44:23;;;;;;;10.50;6.88;;;19.60;99.90;;;;;;4997108;28;20214;-92
2022/08/25 01:46:51;;;;;;;9.60;6.50;;;19.60;99.90;;;;;;5014414;28;20179;-89
2022/08/25 01:49:21;;;;;;;9.50;6.90;;;19.60;99.90;;;;;;4997197;28;20641;-90
2022/08/25 01:51:54;;;;;;;8.00;6.35;;;19.60;99.90;;;;;;5014784;28;20163;-90
2022/08/25 01:54:20;;;;;;;9.57;6.50;;;19.70;99.90;;;;;;5002862;28;20256;-92
2022/08/25 01:56:45;;;;;;;7.53;6.40;;;19.70;99.90;;;;;;4997088;28;20669;-91
2022/08/25 01:59:16;;;;;;;11.38;6.57;;;19.70;99.90;;;;;;5014580;28;20175;-92
2022/08/25 02:01:42;;;;;;;12.27;7.57;;;19.70;99.90;;;;;;4997459;28;20195;-91
2022/08/25 02:04:08;;;;;;;10.63;7.00;;;19.60;99.90;;;;;;4997127;28;20646;-90
2022/08/25 02:06:34;;;;;;;9.02;6.72;;;19.60;99.90;;;;;;4997175;28;20214;-89
2022/08/25 02:09:09;;;;;;;10.98;6.88;;;19.50;99.90;;;;;;4997554;28;20175;-90
2022/08/25 02:11:39;;;;;;;9.75;7.15;;;19.50;99.90;;;;;;4998688;28;20178;-89
2022/08/25 02:14:06;;;;;;;12.65;6.90;;;19.50;99.90;;;;;;5001039;28;20221;-90
2022/08/25 02:16:35;;;;;;;7.95;6.97;;;19.50;99.90;;;;;;4996524;28;20227;-91
2022/08/25 02:19:07;;;;;;;8.00;6.60;;;19.40;99.90;;;;;;4997118;28;20172;-89
2022/08/25 02:21:34;;;;;;;9.77;6.95;;;19.40;99.90;;;;;;4997089;28;20176;-89
2022/08/25 02:24:00;;;;;;;9.20;6.72;;;19.40;99.90;;;;;;4996933;28;20302;-90
2022/08/25 02:26:26;;;;;;;9.85;7.25;;;19.40;99.90;;;;;;4996634;28;20271;-91
2022/08/25 02:28:52;;;;;;;10.98;7.18;;;19.40;99.90;;;;;;4996762;28;20579;-91
2022/08/25 02:31:20;;;;;;;10.30;7.20;;;19.40;99.90;;;;;;4995650;28;20192;-92
2022/08/25 02:33:46;;;;;;;11.02;6.95;;;19.40;99.90;;;;;;4996464;28;20180;-93
2022/08/25 02:36:11;;;;;;;11.35;7.25;;;19.40;99.90;;;;;;4996578;28;20552;-92
2022/08/25 02:38:38;;;;;;;12.27;7.18;;;19.50;99.90;;;;;;4996668;28;20175;-91
2022/08/25 02:41:19;;;;;;;9.30;7.25;;;19.40;99.90;;;;;;4996730;28;20274;-92
2022/08/25 02:43:47;;;;;;;9.38;6.78;;;19.40;99.90;;;;;;4996135;28;20207;-91
2022/08/25 02:46:14;;;;;;;11.88;7.93;;;19.40;99.90;;;;;;4996876;28;20207;-90
2022/08/25 02:48:40;;;;;;;11.15;7.80;;;19.40;99.90;;;;;;4978499;28;20649;-92
2022/08/25 02:51:09;;;;;;;12.02;7.35;;;19.40;99.90;;;;;;4977688;28;20180;-90
2022/08/25 02:53:38;;;;;;;10.43;7.40;;;19.40;99.90;;;;;;4977625;28;20196;-90
2022/08/25 02:56:06;;;;;;;13.20;8.15;;;19.30;99.90;;;;;;4977403;28;20188;-91
2022/08/25 02:58:32;;;;;;;10.70;7.93;;;19.30;99.90;;;;;;4992914;28;20282;-90
2022/08/25 03:00:57;;;;;;;9.45;8.15;;;19.30;99.90;;;;;;4998117;28;20183;-90
2022/08/25 03:03:23;;;;;;;11.02;7.63;;;19.20;99.90;;;;;;4977164;28;20197;-90
2022/08/25 03:05:49;;;;;;;11.55;8.45;;;19.20;99.90;;;;;;4977231;28;20187;-90
2022/08/25 03:08:16;;;;;;;11.77;8.77;;;19.10;99.90;;;;;;4977254;28;20172;-91
2022/08/25 03:10:55;;;;;;;13.75;7.90;;;19.10;99.90;;;;;;4977260;28;20184;-91
2022/08/25 03:13:20;;;;;;;11.05;7.63;;;19.00;99.90;;;;;;4990033;28;20188;-90
2022/08/25 03:15:46;;;;;;;12.15;8.60;;;19.00;99.90;;;;;;4998450;28;20491;-90
2022/08/25 03:18:12;;;;;;;12.77;8.82;;;19.00;99.90;;;;;;4999773;28;20222;-90
2022/08/25 03:20:39;;;;;;;10.27;8.43;;;19.00;99.90;;;;;;4999586;28;20179;-88
2022/08/25 03:23:05;;;;;;;11.27;8.77;;;19.00;99.90;;;;;;4998483;28;20179;-92
2022/08/25 03:28:16;;;;;;;10.20;8.45;;;19.10;99.90;;;;;;5017189;28;20189;-90
2022/08/25 03:30:45;;;;;;;10.77;8.70;;;19.10;99.90;;;;;;4999587;28;20225;-93
2022/08/25 03:33:12;;;;;;;11.70;8.70;;;19.00;99.90;;;;;;5006938;28;20245;-94
2022/08/25 03:35:37;;;;;;;9.73;7.75;;;19.00;99.90;;;;;;5015994;28;20186;-93
2022/08/25 03:38:03;;;;;;;11.18;8.32;;;19.10;99.90;;;;;;5015859;28;20588;-94
2022/08/25 03:40:39;;;;;;;14.02;8.50;;;19.10;99.90;;;;;;5015839;28;20183;-93
2022/08/25 03:43:05;;;;;;;11.93;8.23;;;19.00;99.90;;;;;;5016310;28;20242;-93
2022/08/25 03:45:31;;;;;;;14.38;8.77;;;19.00;99.90;;;;;;5002628;28;20690;-90
2022/08/25 03:47:59;;;;;;;11.70;8.52;;;18.90;99.90;;;;;;4999348;28;20182;-91
2022/08/25 03:50:25;;;;;;;12.80;8.80;;;18.90;99.90;;;;;;4999265;28;20175;-90
2022/08/25 03:52:55;;;;;;;9.13;8.13;;;18.90;99.90;;;;;;4998927;28;20187;-93
2022/08/25 03:55:22;;;;;;;14.57;9.02;;;18.90;99.90;;;;;;4999331;28;20227;-92
2022/08/25 03:57:48;;;;;;;12.18;9.35;;;18.90;99.90;;;;;;5016508;28;20239;-92
2022/08/25 04:00:23;;;;;;;11.88;8.35;;;18.90;99.90;;;;;;4998612;28;20692;-91
2022/08/25 04:02:48;;;;;;;14.63;9.75;;;18.90;99.90;;;;;;4998447;28;20512;-91
2022/08/25 04:05:14;;;;;;;14.30;10.23;;;18.90;99.90;;;;;;4998866;28;20226;-90
2022/08/25 04:07:40;;;;;;;12.15;9.55;;;18.80;99.90;;;;;;4998786;28;20537;-91
2022/08/25 04:10:12;;;;;;;13.80;10.15;;;18.80;99.90;;;;;;4998907;28;20189;-91
2022/08/25 04:12:38;;;;;;;14.13;9.15;;;18.70;99.90;;;;;;4998875;28;20175;-91
2022/08/25 04:15:06;;;;;;;12.65;10.30;;;18.70;99.90;;;;;;4998571;28;20278;-92
2022/08/25 04:17:32;;;;;;;12.52;10.05;;;18.70;99.90;;;;;;4998219;28;20281;-93
2022/08/25 04:19:58;;;;;;;12.38;9.55;;;18.70;99.90;;;;;;4998468;28;20183;-92
2022/08/25 04:22:25;;;;;;;12.95;9.65;;;18.70;99.90;;;;;;4998434;28;20181;-90
2022/08/25 04:24:50;;;;;;;16.63;10.55;;;18.70;99.90;;;;;;4998011;28;20223;-88
2022/08/25 04:27:16;;;;;;;14.93;9.65;;;18.70;99.90;;;;;;4998051;28;20265;-89
2022/08/25 04:29:42;;;;;;;14.20;10.32;;;18.70;99.90;;;;;;5015698;28;20210;-91
2022/08/25 04:32:08;;;;;;;15.45;9.85;;;18.60;99.90;;;;;;4997666;28;20258;-90
2022/08/25 04:34:34;;;;;;;11.52;9.30;;;18.60;99.90;;;;;;4997950;28;20175;-86
2022/08/25 04:37:06;;;;;;;21.13;11.05;;;18.60;99.90;;;;;;4998205;28;20404;-92
2022/08/25 04:39:32;;;;;;;15.40;10.88;;;18.60;99.90;;;;;;4997943;28;20266;-89
2022/08/25 04:42:03;;;;;;;16.55;11.45;;;18.60;99.90;;;;;;5015597;28;20171;-94
2022/08/25 04:44:30;;;;;;;16.30;10.80;;;18.60;99.90;;;;;;4997719;28;20297;-92
2022/08/25 04:46:56;;;;;;;14.50;11.13;;;18.60;99.90;;;;;;4998116;28;20190;-91
2022/08/25 04:49:22;;;;;;;16.08;11.05;;;18.60;99.90;;;;;;5015497;28;20186;-94
2022/08/25 04:52:03;;;;;;;16.48;11.52;;;18.60;99.90;;;;;;4998316;28;20175;-94
2022/08/25 04:54:29;;;;;;;14.07;10.77;;;18.60;99.90;;;;;;5014693;28;20179;-90
2022/08/25 04:56:54;;;;;;;12.05;10.50;;;18.60;99.90;;;;;;4999494;28;20572;-92
2022/08/25 04:59:20;;;;;;;16.45;11.07;;;18.60;99.90;;;;;;4997916;28;20179;-91
2022/08/25 05:01:52;;;;;;;15.18;9.98;;;18.60;99.90;;;;;;4997915;28;20179;-92
2022/08/25 05:04:20;;;;;;;16.75;9.77;;;18.70;99.90;;;;;;4998055;28;20238;-91
2022/08/25 05:06:46;;;;;;;14.98;10.55;;;18.70;99.90;;;;;;5013022;28;20190;-90
2022/08/25 05:09:12;;;;;;;11.02;9.35;;;18.80;99.90;;;;;;5014319;28;20179;-90
2022/08/25 05:11:43;;;;;;;13.05;9.90;;;18.80;99.90;;;;;;5014462;28;20171;-89
2022/08/25 05:14:10;;;;;;;17.98;10.73;;;18.90;99.90;;;;;;5014313;28;20175;-94
2022/08/25 05:16:37;;;;;;;13.18;9.73;;;19.00;99.90;;;;;;5014283;28;20239;-93
2022/08/25 05:19:03;;;;;;;13.07;9.70;;;19.00;99.90;;;;;;5002602;28;20186;-94
2022/08/25 05:21:32;;;;;;;12.10;9.25;;;19.10;99.90;;;;;;4999037;28;20215;-88
2022/08/25 05:23:59;;;;;;;14.35;10.23;;;19.10;99.90;;;;;;5015734;28;20534;-92
2022/08/25 05:26:27;;;;;;;12.68;10.10;;;19.10;99.90;;;;;;4998339;28;20489;-92
2022/08/25 05:28:54;;;;;;;14.32;9.38;;;19.20;99.90;;;;;;4998899;28;20193;-91
2022/08/25 05:31:23;;;;;;;11.60;9.15;;;19.30;99.90;;;;;;4998090;28;20622;-93
2022/08/25 05:33:50;;;;;;;13.82;9.55;;;19.30;99.90;;;;;;4997695;28;20183;-92
2022/08/25 05:36:16;;;;;;;13.20;10.35;;;19.30;99.90;;;;;;4998167;28;20186;-92
2022/08/25 05:38:42;;;;;;;12.98;9.40;;;19.30;99.90;;;;;;4997171;28;20322;-92
2022/08/25 05:41:12;;;;;;;13.95;9.70;;;19.40;99.90;;;;;;4995999;28;20266;-91
2022/08/25 05:43:39;;;;;;;13.43;9.60;;;19.40;99.90;;;;;;5012571;28;20306;-91
2022/08/25 05:46:07;;;;;;;12.60;9.27;;;19.50;99.90;;;;;;4996406;28;20194;-92
2022/08/25 05:48:33;;;;;;;18.73;10.50;;;19.50;99.90;;;;;;4997096;28;20258;-89
2022/08/25 05:51:01;;;;;;;16.02;10.55;;;19.50;99.90;;;;;;4981353;28;20214;-93
2022/08/25 05:53:29;;;;;;;13.32;9.82;;;19.50;99.90;;;;;;5012832;28;20219;-90
2022/08/25 05:55:56;;;;;;;21.08;10.32;;;19.50;99.90;;;;;;5017583;28;20168;-88
2022/08/25 05:58:24;;;;;;;16.60;10.45;;;19.60;99.90;;;;;;5000519;28;20188;-89
2022/08/25 06:00:50;;;;;;;15.07;10.57;;;19.60;99.90;;;;;;5000000;28;20195;-90
2022/08/25 06:03:17;;;;;;;13.70;9.75;;;19.70;99.90;;;;;;4999598;28;20198;-89
2022/08/25 06:05:43;;;;;;;18.77;11.82;;;19.70;99.90;;;;;;5012327;28;20191;-87
2022/08/25 06:08:09;;;;;;;20.70;12.73;;;19.80;99.90;;;;;;5016564;28;20171;-89
2022/08/25 06:10:35;;;;;;;19.00;12.20;;;19.80;99.90;;;;;;5008038;28;20193;-86
2022/08/25 06:13:02;;;;;;;17.48;11.60;;;19.80;99.90;;;;;;5000221;28;20171;-88
2022/08/25 06:15:29;;;;;;;23.73;12.73;;;19.80;99.90;;;;;;4999624;28;20190;-88
2022/08/25 06:17:57;;;;;;;18.77;11.63;;;19.80;99.90;;;;;;4999722;28;20273;-89
2022/08/25 06:20:26;;;;;;;17.75;11.65;;;19.80;99.90;;;;;;4998803;28;20528;-89
2022/08/25 06:22:53;;;;;;;25.35;14.82;;;19.80;99.90;;;;;;4999726;28;20175;-88
2022/08/25 06:25:21;;;;;;;20.65;13.23;;;19.80;99.90;;;;;;5000165;28;20298;-91
2022/08/25 06:27:47;;;;;;;21.80;11.55;;;19.90;99.90;;;;;;4999740;28;20179;-87
2022/08/25 06:30:17;;;;;;;23.10;13.20;;;19.90;99.90;;;;;;4999742;28;20183;-89
2022/08/25 06:32:44;;;;;;;22.45;12.30;;;20.00;99.90;;;;;;5016782;28;20213;-90
2022/08/25 06:35:12;;;;;;;16.92;11.90;;;20.10;99.90;;;;;;4999502;28;20172;-88
2022/08/25 06:37:40;;;;;;;27.10;13.20;;;20.20;99.90;;;;;;5000068;28;20182;-91
2022/08/25 06:40:07;;;;;;;17.65;11.30;;;20.30;99.90;;;;;;4998478;28;20187;-91
2022/08/25 06:42:33;;;;;;;24.67;13.82;;;20.40;99.90;;;;;;4999656;28;20175;-91
2022/08/25 06:45:00;;;;;;;16.90;10.68;;;20.50;99.90;;;;;;4999444;28;20254;-90
2022/08/25 06:47:26;;;;;;;22.83;13.00;;;20.50;99.90;;;;;;4999217;28;20230;-91
2022/08/25 06:49:51;;;;;;;24.98;11.55;;;20.60;99.90;;;;;;4998882;28;20642;-92
2022/08/25 06:52:17;;;;;;;24.80;13.57;;;20.60;99.90;;;;;;4999170;28;20186;-92
2022/08/25 06:54:43;;;;;;;21.65;13.48;;;20.60;99.90;;;;;;4999623;28;20175;-90
2022/08/25 06:57:08;;;;;;;22.00;13.20;;;20.60;99.90;;;;;;4999321;28;20650;-89
2022/08/25 06:59:35;;;;;;;17.67;11.57;;;20.60;99.90;;;;;;4998530;28;20298;-91
2022/08/25 07:02:02;;;;;;;23.88;12.88;;;20.60;99.90;;;;;;4998303;28;20202;-94
2022/08/25 07:04:28;;;;;;;21.58;11.35;;;20.70;99.90;;;;;;4998751;28;20303;-90
2022/08/25 07:06:54;;;;;;;18.95;12.27;;;20.80;99.90;;;;;;4999303;28;20195;-91
2022/08/25 07:09:20;;;;;;;17.77;11.45;;;20.90;99.90;;;;;;4999167;28;20613;-89
2022/08/25 07:11:46;;;;;;;30.42;14.70;;;20.90;99.90;;;;;;4998809;28;20278;-89
2022/08/25 07:14:14;;;;;;;23.73;13.25;;;20.90;99.90;;;;;;4999108;28;20186;-91
2022/08/25 07:16:41;;;;;;;20.13;12.57;;;21.00;99.90;;;;;;4980272;28;20232;-92
2022/08/25 07:19:07;;;;;;;18.38;11.95;;;21.00;99.90;;;;;;4976112;28;20722;-90
2022/08/25 07:21:35;;;;;;;22.85;12.90;;;20.90;99.90;;;;;;4976379;28;20183;-91
2022/08/25 07:24:04;;;;;;;17.65;10.98;;;21.00;99.90;;;;;;4977632;28;20599;-92
2022/08/25 07:26:35;;;;;;;23.73;12.98;;;21.10;99.90;;;;;;4994794;28;20286;-88
2022/08/25 07:29:04;;;;;;;21.77;11.90;;;21.10;99.90;;;;;;4995001;28;20206;-89
2022/08/25 07:31:30;;;;;;;24.63;12.68;;;21.20;99.90;;;;;;4995312;28;20199;-91
2022/08/25 07:36:41;;;;;;;20.05;12.75;;;21.40;99.90;;;;;;4996206;28;20183;-91
2022/08/25 07:39:08;;;;;;;21.00;12.35;;;21.60;99.90;;;;;;4996282;28;20176;-89
2022/08/25 07:41:39;;;;;;;21.40;12.07;;;21.60;99.90;;;;;;4994555;28;20191;-85
2022/08/25 07:44:05;;;;;;;21.27;12.38;;;21.70;99.90;;;;;;4995034;28;20657;-92
2022/08/25 07:46:31;;;;;;;22.08;12.10;;;21.80;99.90;;;;;;4995093;28;20543;-90
2022/08/25 07:48:56;;;;;;;18.60;11.95;;;21.90;99.90;;;;;;4993503;28;20195;-88
2022/08/25 07:51:22;;;;;;;16.33;10.80;;;22.00;99.90;;;;;;4994537;28;20183;-88
2022/08/25 07:53:48;;;;;;;21.35;11.68;;;22.10;99.90;;;;;;4994011;28;20184;-90
2022/08/25 07:56:15;;;;;;;23.88;11.05;;;22.20;99.90;;;;;;4988057;28;20184;-93
2022/08/25 07:58:42;;;;;;;15.18;10.38;;;22.30;99.90;;;;;;4993983;28;20195;-90
2022/08/25 08:01:14;;;;;;;16.98;10.18;;;22.50;99.90;;;;;;4994646;28;20234;-89
2022/08/25 08:03:40;;;;;;;18.98;11.60;;;22.60;99.90;;;;;;4994221;28;20212;-92
2022/08/25 08:06:12;;;;;;;18.63;9.90;;;22.60;99.90;;;;;;4993756;28;20180;-88
2022/08/25 08:08:43;;;;;;;14.23;9.63;;;22.70;99.90;;;;;;4995870;28;20223;-92
2022/08/25 08:11:18;;;;;;;17.10;9.20;;;22.80;99.90;;;;;;4989774;28;20199;-91
2022/08/25 08:13:44;;;;;;;14.73;9.40;;;22.90;99.90;;;;;;4974855;28;20611;-92
2022/08/25 08:16:11;;;;;;;12.23;8.68;;;23.00;99.90;;;;;;4984758;28;20376;-90
2022/08/25 08:18:37;;;;;;;14.98;8.68;;;23.10;99.90;;;;;;4987765;28;20191;-90
2022/08/25 08:21:03;;;;;;;14.60;8.52;;;23.20;99.90;;;;;;4994991;28;20211;-89
2022/08/25 08:23:29;;;;;;;15.15;8.07;;;23.30;99.90;;;;;;4995387;28;20266;-88
2022/08/25 08:25:55;;;;;;;12.57;8.20;;;23.40;99.90;;;;;;4993902;28;20183;-91
2022/08/25 08:28:21;;;;;;;12.30;7.68;;;23.50;99.90;;;;;;4994910;28;20184;-91
2022/08/25 08:30:48;;;;;;;14.25;7.97;;;23.70;99.90;;;;;;4991699;28;20180;-90
2022/08/25 08:33:14;;;;;;;13.48;7.97;;;23.80;99.90;;;;;;4993396;28;20200;-91
2022/08/25 08:35:40;;;;;;;11.63;8.00;;;23.90;99.90;;;;;;4975133;28;20184;-88
2022/08/25 08:38:06;;;;;;;12.63;8.30;;;24.00;99.90;;;;;;4974219;28;20670;-89
2022/08/25 08:42:15;;;;;;;11.63;7.32;;;24.10;99.90;;;;;;4979820;28;20188;-89
2022/08/25 08:43:31;;;;;;;10.57;7.38;;;24.20;99.90;;;;;;4976103;28;20205;-92
2022/08/25 08:45:56;;;;;;;12.30;7.65;;;24.30;99.90;;;;;;4974455;28;20181;-88
2022/08/25 08:48:39;;;;;;;14.05;7.40;;;24.40;99.90;;;;;;4974424;28;20239;-89
2022/08/25 08:51:23;;;;;;;9.02;7.00;;;24.40;99.90;;;;;;4974254;28;20330;-91
2022/08/25 08:54:24;;;;;;;13.68;6.93;;;24.40;99.90;;;;;;4990993;28;20222;-91
2022/08/25 08:57:01;;;;;;;10.48;6.60;;;24.50;99.90;;;;;;4979270;28;20199;-90
2022/08/25 08:59:32;;;;;;;15.50;5.70;;;24.60;99.90;;;;;;4993151;28;20210;-88
2022/08/25 09:02:01;;;;;;;12.00;6.45;;;24.70;99.90;;;;;;4992819;28;20665;-87
2022/08/25 09:04:44;;;;;;;8.27;6.00;;;24.90;99.90;;;;;;4981514;28;20223;-91
2022/08/25 09:07:17;;;;;;;10.73;6.03;;;25.00;99.90;;;;;;4975052;28;20165;-91
2022/08/25 09:09:44;;;;;;;10.43;5.88;;;25.10;99.90;;;;;;4980439;28;20188;-90
2022/08/25 09:12:36;;;;;;;13.07;5.70;;;25.20;99.90;;;;;;4994697;28;20246;-93
2022/08/25 09:18:39;;;;;;;11.77;5.55;;;25.40;99.90;;;;;;4975648;28;20303;-90
2022/08/25 09:21:30;;;;;;;18.88;5.70;;;25.40;99.90;;;;;;4973222;28;20287;-87
2022/08/25 09:24:32;;;;;;;7.88;5.10;;;25.40;99.90;;;;;;4974046;28;20212;-89
2022/08/25 09:27:30;;;;;;;8.45;4.95;;;25.40;99.90;;;;;;4974928;28;20239;-85
2022/08/25 09:30:08;;;;;;;8.88;4.90;;;25.50;99.90;;;;;;4967768;28;20199;-86
2022/08/25 09:32:45;;;;;;;9.13;5.07;;;25.60;99.90;;;;;;4986835;28;20249;-87
2022/08/25 09:35:21;;;;;;;7.88;4.63;;;25.70;99.90;;;;;;4992534;28;20187;-89
2022/08/25 09:38:05;;;;;;;6.70;4.90;;;25.60;99.90;;;;;;4980878;28;20179;-90
2022/08/25 09:40:35;;;;;;;9.75;5.00;;;25.50;99.90;;;;;;4976935;28;20187;-92
2022/08/25 09:43:04;;;;;;;8.23;4.32;;;25.40;99.90;;;;;;4993262;28;20211;-90
2022/08/25 09:45:41;;;;;;;11.77;4.45;;;25.20;99.90;;;;;;4982068;28;20384;-89
2022/08/25 09:48:49;;;;;;;8.65;4.78;;;25.20;99.90;;;;;;4974018;28;20184;-89
2022/08/25 09:51:17;;;;;;;10.63;5.05;;;25.20;99.90;;;;;;4927818;28;20203;-90
2022/08/25 09:54:06;;;;;;;12.05;4.75;;;25.20;99.90;;;;;;4975086;28;20179;-92
2022/08/25 09:56:46;;;;;;;7.40;4.63;;;25.40;99.90;;;;;;4974147;28;20169;-89
2022/08/25 09:59:24;;;;;;;6.93;4.85;;;25.60;99.90;;;;;;4973813;28;20199;-91
2022/08/25 10:01:52;;;;;;;6.90;4.97;;;25.70;99.90;;;;;;4980220;28;20279;-88
2022/08/25 10:04:35;;;;;;;8.07;5.18;;;25.80;99.90;;;;;;4992638;28;20656;-91
2022/08/25 10:07:03;;;;;;;10.15;4.90;;;26.00;99.90;;;;;;4994467;28;20160;-94
2022/08/25 10:09:38;;;;;;;8.55;5.10;;;26.20;99.90;;;;;;4993928;28;20555;-88
2022/08/25 10:12:20;;;;;;;12.23;5.35;;;26.30;99.90;;;;;;4993290;28;20187;-88
2022/08/25 10:14:47;;;;;;;8.27;5.15;;;26.40;99.90;;;;;;4992473;28;20190;-92
2022/08/25 10:17:26;;;;;;;7.80;5.45;;;26.40;99.90;;;;;;5005481;28;20235;-88
2022/08/25 10:19:54;;;;;;;13.85;5.78;;;26.60;99.60;;;;;;4995802;28;20520;-90
2022/08/25 10:22:23;;;;;;;8.27;4.68;;;26.70;99.10;;;;;;4991858;28;20188;-89
2022/08/25 10:24:48;;;;;;;7.47;4.97;;;26.70;99.00;;;;;;4976730;28;20211;-88
2022/08/25 10:27:33;;;;;;;11.70;5.38;;;26.60;99.00;;;;;;4976525;28;20179;-88
2022/08/25 10:30:16;;;;;;;8.43;5.15;;;26.40;99.00;;;;;;4976713;28;20632;-90
2022/08/25 10:32:50;;;;;;;11.00;4.82;;;26.20;99.20;;;;;;5009102;28;20179;-88
2022/08/25 10:35:30;;;;;;;10.15;5.38;;;26.00;99.60;;;;;;4999427;28;20187;-86
2022/08/25 10:38:21;;;;;;;11.35;5.32;;;26.00;99.70;;;;;;5017191;28;20226;-87
2022/08/25 10:40:59;;;;;;;16.95;5.47;;;26.10;99.80;;;;;;4991295;28;20191;-88
2022/08/25 10:43:44;;;;;;;13.85;5.60;;;26.20;99.90;;;;;;4979886;28;20172;-91
2022/08/25 10:46:44;;;;;;;11.85;5.53;;;26.40;99.40;;;;;;4980094;28;20507;-87
2022/08/25 10:49:18;;;;;;;10.77;6.03;;;26.50;99.40;;;;;;4979477;28;20385;-91
2022/08/25 10:51:50;;;;;;;8.90;5.40;;;26.50;99.40;;;;;;4996892;28;20194;-89
2022/08/25 10:54:19;;;;;;;9.65;6.07;;;26.50;99.60;;;;;;4999350;28;20717;-90
2022/08/25 10:57:14;;;;;;;8.27;5.82;;;26.30;99.30;;;;;;4998924;28;20214;-87
2022/08/25 10:59:48;;;;;;;10.77;6.70;;;26.10;99.50;;;;;;4999049;28;20653;-93
2022/08/25 11:02:52;;;;;;;11.15;6.30;;;25.90;99.60;;;;;;4988893;28;20222;-89
2022/08/25 11:05:50;;;;;;;14.00;6.70;;;26.00;99.90;;;;;;4968339;28;20223;-92
2022/08/25 11:08:43;;;;;;;18.00;6.65;;;26.10;99.90;;;;;;4997179;28;20180;-89
2022/08/25 11:11:23;;;;;;;12.75;5.68;;;26.20;99.90;;;;;;4979529;28;20258;-87
2022/08/25 11:13:59;;;;;;;10.90;5.10;;;26.50;99.10;;;;;;4996938;28;20156;-88
2022/08/25 11:16:38;;;;;;;9.25;5.78;;;26.90;98.60;;;;;;4993091;28;20301;-88
2022/08/25 11:19:26;;;;;;;10.25;5.80;;;26.90;98.00;;;;;;4996308;28;20182;-90
2022/08/25 11:21:58;;;;;;;12.48;6.05;;;26.80;98.00;;;;;;4995106;28;20179;-89
2022/08/25 11:24:55;;;;;;;13.18;5.40;;;26.70;98.20;;;;;;5011438;28;20212;-91
2022/08/25 11:27:26;;;;;;;12.02;5.60;;;26.90;98.30;;;;;;4995168;28;20180;-86
2022/08/25 11:30:06;;;;;;;9.48;5.15;;;27.10;97.30;;;;;;4995284;28;20267;-88
2022/08/25 11:32:34;;;;;;;10.07;5.13;;;27.40;97.20;;;;;;4995212;28;20186;-90
2022/08/25 11:35:07;;;;;;;11.82;5.60;;;27.50;96.90;;;;;;4988264;28;20234;-88
2022/08/25 11:37:33;;;;;;;9.40;5.63;;;27.40;97.10;;;;;;4977652;28;20336;-86
2022/08/25 11:40:17;;;;;;;11.60;5.57;;;27.20;97.30;;;;;;4976566;28;20558;-88
2022/08/25 11:42:59;;;;;;;11.65;5.15;;;27.10;97.70;;;;;;4975622;28;20227;-89
2022/08/25 11:45:56;;;;;;;8.65;5.43;;;27.00;97.80;;;;;;4978324;28;20255;-86
2022/08/25 11:48:33;;;;;;;10.73;5.63;;;26.80;97.90;;;;;;4975963;28;20208;-94
2022/08/25 11:51:11;;;;;;;10.38;5.78;;;26.70;98.10;;;;;;4991591;28;20183;-89
2022/08/25 11:53:42;;;;;;;10.45;5.85;;;26.70;98.30;;;;;;4984017;28;20184;-88
2022/08/25 11:56:09;;;;;;;8.13;5.50;;;26.80;98.00;;;;;;4992608;28;20627;-90
2022/08/25 11:58:50;;;;;;;10.02;5.63;;;27.00;98.30;;;;;;4996006;28;20192;-89
2022/08/25 12:01:43;;;;;;;8.15;5.25;;;27.10;98.20;;;;;;4988183;28;20282;-90
2022/08/25 12:04:11;;;;;;;9.63;5.07;;;27.20;97.50;;;;;;4992444;28;20200;-87
2022/08/25 12:07:05;;;;;;;11.30;5.75;;;27.40;97.30;;;;;;4994011;28;20661;-90
2022/08/25 12:09:54;;;;;;;12.05;5.93;;;27.40;96.40;;;;;;4994589;28;20522;-88
2022/08/25 12:12:37;;;;;;;10.88;5.53;;;27.60;96.70;;;;;;4993553;28;20178;-92
2022/08/25 12:15:30;;;;;;;11.15;5.43;;;27.60;96.60;;;;;;4994130;28;20207;-89
2022/08/25 12:18:11;;;;;;;7.95;5.28;;;27.60;96.40;;;;;;4974812;28;20315;-89
2022/08/25 12:20:52;;;;;;;8.52;5.32;;;27.60;96.60;;;;;;4974622;28;20188;-87
2022/08/25 12:23:37;;;;;;;10.98;5.40;;;27.60;96.40;;;;;;4983837;28;20554;-87
2022/08/25 12:26:44;;;;;;;7.43;5.07;;;27.70;96.60;;;;;;4995278;28;20172;-87
2022/08/25 12:29:31;;;;;;;12.60;5.40;;;27.70;96.20;;;;;;4938205;29;20189;-90
2022/08/25 12:31:56;;;;;;;7.93;4.85;;;27.90;95.70;;;;;;4973225;28;20642;-87
2022/08/25 12:34:43;;;;;;;8.60;4.50;;;28.10;95.50;;;;;;4974126;28;20189;-87
2022/08/25 12:37:18;;;;;;;8.20;4.72;;;28.40;95.10;;;;;;4985550;28;20270;-88
2022/08/25 12:39:50;;;;;;;10.60;4.85;;;28.60;95.00;;;;;;4993629;28;20180;-89
2022/08/25 12:42:39;;;;;;;11.48;4.65;;;28.80;94.70;;;;;;4993613;28;20180;-87
2022/08/25 12:45:22;;;;;;;9.32;4.47;;;29.00;94.40;;;;;;4994718;28;20208;-89
2022/08/25 12:47:49;;;;;;;11.60;4.68;;;29.10;94.00;;;;;;4994884;28;20493;-90
2022/08/25 12:50:26;;;;;;;10.02;4.97;;;28.80;94.00;;;;;;4993597;28;20207;-93
2022/08/25 12:52:54;;;;;;;6.65;4.32;;;28.70;94.60;;;;;;4993875;28;20179;-89
2022/08/25 12:55:25;;;;;;;10.73;4.68;;;28.80;94.80;;;;;;4994672;28;20238;-89
2022/08/25 12:57:57;;;;;;;10.45;4.80;;;29.10;94.40;;;;;;4993187;28;20175;-87
2022/08/25 13:00:35;;;;;;;10.40;4.63;;;29.20;93.30;;;;;;4992743;28;20200;-85
2022/08/25 13:03:23;;;;;;;12.20;4.80;;;29.20;93.70;;;;;;4993302;28;20180;-86
2022/08/25 13:06:10;;;;;;;10.90;4.70;;;29.20;93.40;;;;;;4986777;28;20220;-87
2022/08/25 13:09:07;;;;;;;8.82;4.97;;;29.10;93.30;;;;;;4981985;28;20251;-87
2022/08/25 13:11:41;;;;;;;13.20;4.30;;;29.00;93.50;;;;;;4992494;28;20172;-87
2022/08/25 13:14:10;;;;;;;6.47;4.05;;;29.10;93.60;;;;;;4990475;28;20278;-88